Terminal Aerodrome Forecast
Issued by NWS

Home | Current Version | Previous Version | Text Only | Print | Product List | Glossary On
Versions: 1 2 3 4 5 6 7 8 9 10 11 12 13 14 15 16 17 18 19
000
FTUS43 KGRB 291100
TAFMTW
TAF
KMTW 291120Z 2912/3012 31006KT P6SM BKN100
     FM291700 31009KT P6SM VCSH SCT035 BKN090
      TEMPO 2919/2923 5SM -TSRA BKN035CB
     FM292300 VRB03KT P6SM VCSH SCT025 BKN080
     FM300700 34005KT P6SM SCT010 SCT070=

USA.gov is the U.S. government's official web portal to all federal, state and local government web resources and services.